sensor_id;sensor_type;location;lat;lon;timestamp;P1;durP1;ratioP1;P2;durP2;ratioP2
1879;SDS011;49285;49.002;8.390;2023-02-21T00:01:06;7.17;;;4.80;;
1879;SDS011;49285;49.002;8.390;2023-02-21T00:03:50;6.40;;;5.17;;
1879;SDS011;49285;49.002;8.390;2023-02-21T00:06:34;5.53;;;4.40;;
1879;SDS011;49285;49.002;8.390;2023-02-21T00:09:18;6.70;;;4.67;;
1879;SDS011;49285;49.002;8.390;2023-02-21T00:12:02;5.83;;;4.90;;
1879;SDS011;49285;49.002;8.390;2023-02-21T00:14:46;7.43;;;4.43;;
1879;SDS011;49285;49.002;8.390;2023-02-21T00:17:30;7.50;;;4.57;;
1879;SDS011;49285;49.002;8.390;2023-02-21T00:20:14;5.50;;;4.17;;
1879;SDS011;49285;49.002;8.390;2023-02-21T00:22:58;4.83;;;4.30;;
1879;SDS011;49285;49.002;8.390;2023-02-21T00:25:42;7.40;;;4.57;;
1879;SDS011;49285;49.002;8.390;2023-02-21T00:28:27;4.93;;;3.63;;
1879;SDS011;49285;49.002;8.390;2023-02-21T00:31:11;5.93;;;4.40;;
1879;SDS011;49285;49.002;8.390;2023-02-21T00:33:55;6.93;;;4.83;;
1879;SDS011;49285;49.002;8.390;2023-02-21T00:36:39;7.57;;;4.57;;
1879;SDS011;49285;49.002;8.390;2023-02-21T00:39:23;8.93;;;4.50;;
1879;SDS011;49285;49.002;8.390;2023-02-21T00:42:07;5.93;;;4.30;;
1879;SDS011;49285;49.002;8.390;2023-02-21T00:44:51;6.30;;;4.20;;
1879;SDS011;49285;49.002;8.390;2023-02-21T00:47:35;7.77;;;4.67;;
1879;SDS011;49285;49.002;8.390;2023-02-21T00:50:19;8.20;;;4.40;;
1879;SDS011;49285;49.002;8.390;2023-02-21T00:53:04;4.30;;;3.90;;
1879;SDS011;49285;49.002;8.390;2023-02-21T00:55:48;5.93;;;4.27;;
1879;SDS011;49285;49.002;8.390;2023-02-21T00:58:32;5.00;;;4.20;;
1879;SDS011;49285;49.002;8.390;2023-02-21T01:01:16;5.90;;;4.57;;
1879;SDS011;49285;49.002;8.390;2023-02-21T01:04:00;10.27;;;4.00;;
1879;SDS011;49285;49.002;8.390;2023-02-21T01:06:44;11.17;;;4.83;;
1879;SDS011;49285;49.002;8.390;2023-02-21T01:09:28;4.87;;;4.30;;
1879;SDS011;49285;49.002;8.390;2023-02-21T01:12:12;7.63;;;4.50;;
1879;SDS011;49285;49.002;8.390;2023-02-21T01:14:56;7.63;;;4.30;;
1879;SDS011;49285;49.002;8.390;2023-02-21T01:17:40;5.53;;;4.50;;
1879;SDS011;49285;49.002;8.390;2023-02-21T01:20:25;7.13;;;4.40;;
1879;SDS011;49285;49.002;8.390;2023-02-21T01:23:09;8.10;;;5.30;;
1879;SDS011;49285;49.002;8.390;2023-02-21T01:25:53;5.83;;;3.90;;
1879;SDS011;49285;49.002;8.390;2023-02-21T01:28:37;8.53;;;4.67;;
1879;SDS011;49285;49.002;8.390;2023-02-21T01:31:21;7.90;;;5.37;;
1879;SDS011;49285;49.002;8.390;2023-02-21T01:34:05;5.37;;;3.80;;
1879;SDS011;49285;49.002;8.390;2023-02-21T01:36:49;7.10;;;5.60;;
1879;SDS011;49285;49.002;8.390;2023-02-21T01:39:34;7.77;;;4.80;;
1879;SDS011;49285;49.002;8.390;2023-02-21T01:42:18;12.50;;;4.67;;
1879;SDS011;49285;49.002;8.390;2023-02-21T01:48:05;8.70;;;4.17;;
1879;SDS011;49285;49.002;8.390;2023-02-21T01:50:58;8.17;;;4.00;;
1879;SDS011;49285;49.002;8.390;2023-02-21T01:53:44;10.83;;;4.70;;
1879;SDS011;49285;49.002;8.390;2023-02-21T01:56:29;13.37;;;4.20;;
1879;SDS011;49285;49.002;8.390;2023-02-21T01:59:14;7.17;;;4.10;;
1879;SDS011;49285;49.002;8.390;2023-02-21T02:02:06;5.60;;;4.53;;
1879;SDS011;49285;49.002;8.390;2023-02-21T02:05:09;4.40;;;4.00;;
1879;SDS011;49285;49.002;8.390;2023-02-21T02:07:54;5.37;;;3.90;;
1879;SDS011;49285;49.002;8.390;2023-02-21T02:10:39;5.50;;;4.07;;
1879;SDS011;49285;49.002;8.390;2023-02-21T02:13:28;4.43;;;3.43;;
1879;SDS011;49285;49.002;8.390;2023-02-21T02:16:31;7.57;;;4.50;;
1879;SDS011;49285;49.002;8.390;2023-02-21T02:22:07;5.70;;;3.97;;
1879;SDS011;49285;49.002;8.390;2023-02-21T02:25:03;5.90;;;4.00;;
1879;SDS011;49285;49.002;8.390;2023-02-21T02:27:58;4.90;;;4.20;;
1879;SDS011;49285;49.002;8.390;2023-02-21T02:36:05;6.67;;;4.07;;
1879;SDS011;49285;49.002;8.390;2023-02-21T02:38:38;7.93;;;4.13;;
1879;SDS011;49285;49.002;8.390;2023-02-21T02:41:28;7.00;;;4.50;;
1879;SDS011;49285;49.002;8.390;2023-02-21T02:44:18;5.10;;;4.07;;
1879;SDS011;49285;49.002;8.390;2023-02-21T02:46:48;4.87;;;3.80;;
1879;SDS011;49285;49.002;8.390;2023-02-21T02:49:16;5.40;;;4.10;;
1879;SDS011;49285;49.002;8.390;2023-02-21T02:51:47;6.50;;;4.33;;
1879;SDS011;49285;49.002;8.390;2023-02-21T02:54:13;6.80;;;4.10;;
1879;SDS011;49285;49.002;8.390;2023-02-21T02:56:38;5.30;;;3.80;;
1879;SDS011;49285;49.002;8.390;2023-02-21T02:59:20;4.73;;;4.30;;
1879;SDS011;49285;49.002;8.390;2023-02-21T03:15:35;8.43;;;3.80;;
1879;SDS011;49285;49.002;8.390;2023-02-21T03:18:15;5.67;;;4.30;;
1879;SDS011;49285;49.002;8.390;2023-02-21T03:20:49;6.87;;;4.10;;
1879;SDS011;49285;49.002;8.390;2023-02-21T03:23:18;7.60;;;4.80;;
1879;SDS011;49285;49.002;8.390;2023-02-21T03:25:46;4.90;;;4.37;;
1879;SDS011;49285;49.002;8.390;2023-02-21T03:28:14;7.27;;;5.20;;
1879;SDS011;49285;49.002;8.390;2023-02-21T03:30:40;6.57;;;4.00;;
1879;SDS011;49285;49.002;8.390;2023-02-21T03:33:07;7.67;;;4.90;;
1879;SDS011;49285;49.002;8.390;2023-02-21T03:35:33;5.63;;;4.43;;
1879;SDS011;49285;49.002;8.390;2023-02-21T03:37:58;8.07;;;4.77;;
1879;SDS011;49285;49.002;8.390;2023-02-21T03:40:28;5.90;;;4.83;;
1879;SDS011;49285;49.002;8.390;2023-02-21T03:42:56;6.90;;;4.83;;
1879;SDS011;49285;49.002;8.390;2023-02-21T03:45:22;9.30;;;4.83;;
1879;SDS011;49285;49.002;8.390;2023-02-21T03:47:48;7.13;;;4.60;;
1879;SDS011;49285;49.002;8.390;2023-02-21T03:50:14;5.63;;;4.70;;
1879;SDS011;49285;49.002;8.390;2023-02-21T03:52:40;5.30;;;4.17;;
1879;SDS011;49285;49.002;8.390;2023-02-21T03:55:06;6.70;;;4.97;;
1879;SDS011;49285;49.002;8.390;2023-02-21T03:57:32;7.37;;;4.10;;
1879;SDS011;49285;49.002;8.390;2023-02-21T03:59:58;4.73;;;4.13;;
1879;SDS011;49285;49.002;8.390;2023-02-21T04:02:24;8.13;;;4.93;;
1879;SDS011;49285;49.002;8.390;2023-02-21T04:04:50;7.37;;;4.23;;
1879;SDS011;49285;49.002;8.390;2023-02-21T04:07:16;5.90;;;4.23;;
1879;SDS011;49285;49.002;8.390;2023-02-21T04:09:43;6.20;;;4.70;;
1879;SDS011;49285;49.002;8.390;2023-02-21T04:12:09;6.60;;;4.17;;
1879;SDS011;49285;49.002;8.390;2023-02-21T04:14:35;6.60;;;4.10;;
1879;SDS011;49285;49.002;8.390;2023-02-21T04:17:01;7.23;;;5.20;;
1879;SDS011;49285;49.002;8.390;2023-02-21T04:19:26;6.07;;;4.77;;
1879;SDS011;49285;49.002;8.390;2023-02-21T04:21:52;8.00;;;4.73;;
1879;SDS011;49285;49.002;8.390;2023-02-21T04:24:17;5.77;;;4.80;;
1879;SDS011;49285;49.002;8.390;2023-02-21T04:26:43;4.73;;;4.03;;
1879;SDS011;49285;49.002;8.390;2023-02-21T04:29:08;6.40;;;4.40;;
1879;SDS011;49285;49.002;8.390;2023-02-21T04:31:34;8.13;;;4.60;;
1879;SDS011;49285;49.002;8.390;2023-02-21T04:34:00;5.27;;;4.37;;
1879;SDS011;49285;49.002;8.390;2023-02-21T04:36:26;8.73;;;4.43;;
1879;SDS011;49285;49.002;8.390;2023-02-21T04:38:51;10.67;;;4.87;;
1879;SDS011;49285;49.002;8.390;2023-02-21T04:41:18;6.80;;;4.37;;
1879;SDS011;49285;49.002;8.390;2023-02-21T04:43:44;7.87;;;4.30;;
1879;SDS011;49285;49.002;8.390;2023-02-21T04:46:13;7.53;;;4.97;;
1879;SDS011;49285;49.002;8.390;2023-02-21T04:48:44;6.93;;;5.20;;
1879;SDS011;49285;49.002;8.390;2023-02-21T04:51:12;5.90;;;5.10;;
1879;SDS011;49285;49.002;8.390;2023-02-21T04:53:38;7.90;;;5.20;;
1879;SDS011;49285;49.002;8.390;2023-02-21T04:56:04;8.07;;;5.23;;
1879;SDS011;49285;49.002;8.390;2023-02-21T04:58:30;6.50;;;5.27;;
1879;SDS011;49285;49.002;8.390;2023-02-21T05:00:55;6.53;;;5.13;;
1879;SDS011;49285;49.002;8.390;2023-02-21T05:03:21;9.20;;;5.50;;
1879;SDS011;49285;49.002;8.390;2023-02-21T05:05:48;8.33;;;5.57;;
1879;SDS011;49285;49.002;8.390;2023-02-21T05:08:14;10.67;;;6.43;;
1879;SDS011;49285;49.002;8.390;2023-02-21T05:10:40;6.97;;;5.27;;
1879;SDS011;49285;49.002;8.390;2023-02-21T05:13:05;10.00;;;5.90;;
1879;SDS011;49285;49.002;8.390;2023-02-21T05:15:31;8.30;;;5.70;;
1879;SDS011;49285;49.002;8.390;2023-02-21T05:17:56;12.97;;;6.07;;
1879;SDS011;49285;49.002;8.390;2023-02-21T05:20:22;11.40;;;5.30;;
1879;SDS011;49285;49.002;8.390;2023-02-21T05:22:48;7.90;;;6.07;;
1879;SDS011;49285;49.002;8.390;2023-02-21T05:25:17;12.03;;;6.10;;
1879;SDS011;49285;49.002;8.390;2023-02-21T05:27:45;9.87;;;5.57;;
1879;SDS011;49285;49.002;8.390;2023-02-21T05:30:11;8.83;;;6.57;;
1879;SDS011;49285;49.002;8.390;2023-02-21T05:32:39;8.27;;;6.57;;
1879;SDS011;49285;49.002;8.390;2023-02-21T05:35:05;12.63;;;7.10;;
1879;SDS011;49285;49.002;8.390;2023-02-21T05:37:31;8.07;;;6.10;;
1879;SDS011;49285;49.002;8.390;2023-02-21T05:39:56;11.37;;;6.20;;
1879;SDS011;49285;49.002;8.390;2023-02-21T05:42:22;8.30;;;5.40;;
1879;SDS011;49285;49.002;8.390;2023-02-21T05:44:48;11.00;;;7.13;;
1879;SDS011;49285;49.002;8.390;2023-02-21T05:47:13;9.23;;;5.97;;
1879;SDS011;49285;49.002;8.390;2023-02-21T05:49:39;8.17;;;6.20;;
1879;SDS011;49285;49.002;8.390;2023-02-21T05:52:05;11.37;;;5.97;;
1879;SDS011;49285;49.002;8.390;2023-02-21T05:54:32;7.50;;;6.13;;
1879;SDS011;49285;49.002;8.390;2023-02-21T05:56:58;10.13;;;6.43;;
1879;SDS011;49285;49.002;8.390;2023-02-21T05:59:23;7.67;;;6.00;;
1879;SDS011;49285;49.002;8.390;2023-02-21T06:01:49;9.23;;;6.10;;
1879;SDS011;49285;49.002;8.390;2023-02-21T06:04:15;10.07;;;5.90;;
1879;SDS011;49285;49.002;8.390;2023-02-21T06:06:41;8.30;;;6.20;;
1879;SDS011;49285;49.002;8.390;2023-02-21T06:09:07;10.50;;;6.60;;
1879;SDS011;49285;49.002;8.390;2023-02-21T06:11:34;11.97;;;6.97;;
1879;SDS011;49285;49.002;8.390;2023-02-21T06:14:02;10.90;;;7.20;;
1879;SDS011;49285;49.002;8.390;2023-02-21T06:16:33;7.10;;;6.00;;
1879;SDS011;49285;49.002;8.390;2023-02-21T06:18:59;8.30;;;6.10;;
1879;SDS011;49285;49.002;8.390;2023-02-21T06:21:25;7.00;;;5.83;;
1879;SDS011;49285;49.002;8.390;2023-02-21T06:23:51;11.60;;;6.30;;
1879;SDS011;49285;49.002;8.390;2023-02-21T06:26:19;8.33;;;6.07;;
1879;SDS011;49285;49.002;8.390;2023-02-21T06:28:45;7.73;;;6.30;;
1879;SDS011;49285;49.002;8.390;2023-02-21T06:31:11;10.00;;;6.23;;
1879;SDS011;49285;49.002;8.390;2023-02-21T06:33:37;12.60;;;6.13;;
1879;SDS011;49285;49.002;8.390;2023-02-21T06:36:06;13.43;;;6.43;;
1879;SDS011;49285;49.002;8.390;2023-02-21T06:38:34;10.07;;;6.47;;
1879;SDS011;49285;49.002;8.390;2023-02-21T06:41:00;8.27;;;6.10;;
1879;SDS011;49285;49.002;8.390;2023-02-21T06:43:30;8.07;;;6.10;;
1879;SDS011;49285;49.002;8.390;2023-02-21T06:45:56;7.90;;;6.10;;
1879;SDS011;49285;49.002;8.390;2023-02-21T06:48:21;15.47;;;8.53;;
1879;SDS011;49285;49.002;8.390;2023-02-21T06:50:47;8.67;;;6.77;;
1879;SDS011;49285;49.002;8.390;2023-02-21T06:53:12;9.50;;;6.53;;
1879;SDS011;49285;49.002;8.390;2023-02-21T06:55:38;13.20;;;7.10;;
1879;SDS011;49285;49.002;8.390;2023-02-21T06:58:03;14.30;;;7.07;;
1879;SDS011;49285;49.002;8.390;2023-02-21T07:00:29;9.43;;;7.00;;
1879;SDS011;49285;49.002;8.390;2023-02-21T07:02:54;10.03;;;6.53;;
1879;SDS011;49285;49.002;8.390;2023-02-21T07:05:20;10.03;;;7.13;;
1879;SDS011;49285;49.002;8.390;2023-02-21T07:07:45;9.80;;;7.70;;
1879;SDS011;49285;49.002;8.390;2023-02-21T07:10:11;10.53;;;7.33;;
1879;SDS011;49285;49.002;8.390;2023-02-21T07:12:37;10.27;;;7.07;;
1879;SDS011;49285;49.002;8.390;2023-02-21T07:15:03;12.13;;;7.20;;
1879;SDS011;49285;49.002;8.390;2023-02-21T07:17:29;9.03;;;7.17;;
1879;SDS011;49285;49.002;8.390;2023-02-21T07:19:54;10.03;;;7.63;;
1879;SDS011;49285;49.002;8.390;2023-02-21T07:22:20;11.23;;;7.80;;
1879;SDS011;49285;49.002;8.390;2023-02-21T07:24:50;9.60;;;6.70;;
1879;SDS011;49285;49.002;8.390;2023-02-21T07:27:17;16.03;;;7.57;;
1879;SDS011;49285;49.002;8.390;2023-02-21T07:29:45;8.57;;;7.17;;
1879;SDS011;49285;49.002;8.390;2023-02-21T07:32:12;12.47;;;8.23;;
1879;SDS011;49285;49.002;8.390;2023-02-21T07:34:38;12.90;;;7.63;;
1879;SDS011;49285;49.002;8.390;2023-02-21T07:37:03;13.13;;;8.20;;
1879;SDS011;49285;49.002;8.390;2023-02-21T07:39:29;12.47;;;8.10;;
1879;SDS011;49285;49.002;8.390;2023-02-21T07:41:55;9.90;;;7.23;;
1879;SDS011;49285;49.002;8.390;2023-02-21T07:44:20;10.47;;;8.33;;
1879;SDS011;49285;49.002;8.390;2023-02-21T07:46:46;9.53;;;8.17;;
1879;SDS011;49285;49.002;8.390;2023-02-21T07:49:11;13.43;;;8.53;;
1879;SDS011;49285;49.002;8.390;2023-02-21T07:51:37;13.37;;;7.83;;
1879;SDS011;49285;49.002;8.390;2023-02-21T07:54:03;14.40;;;8.30;;
1879;SDS011;49285;49.002;8.390;2023-02-21T07:56:29;10.07;;;8.97;;
1879;SDS011;49285;49.002;8.390;2023-02-21T07:58:54;12.07;;;8.10;;
1879;SDS011;49285;49.002;8.390;2023-02-21T08:01:21;11.43;;;8.50;;
1879;SDS011;49285;49.002;8.390;2023-02-21T08:03:48;10.70;;;7.93;;
1879;SDS011;49285;49.002;8.390;2023-02-21T08:06:14;13.67;;;9.67;;
1879;SDS011;49285;49.002;8.390;2023-02-21T08:08:39;13.13;;;8.20;;
1879;SDS011;49285;49.002;8.390;2023-02-21T08:11:05;13.90;;;8.53;;
1879;SDS011;49285;49.002;8.390;2023-02-21T08:13:31;18.17;;;9.70;;
1879;SDS011;49285;49.002;8.390;2023-02-21T08:15:56;10.83;;;8.67;;
1879;SDS011;49285;49.002;8.390;2023-02-21T08:18:22;17.30;;;9.33;;
1879;SDS011;49285;49.002;8.390;2023-02-21T08:20:52;11.43;;;8.70;;
1879;SDS011;49285;49.002;8.390;2023-02-21T08:23:19;13.50;;;9.30;;
1879;SDS011;49285;49.002;8.390;2023-02-21T08:25:45;16.33;;;8.60;;
1879;SDS011;49285;49.002;8.390;2023-02-21T08:28:12;10.30;;;7.77;;
1879;SDS011;49285;49.002;8.390;2023-02-21T08:30:38;12.10;;;7.47;;
1879;SDS011;49285;49.002;8.390;2023-02-21T08:33:03;16.97;;;7.77;;
1879;SDS011;49285;49.002;8.390;2023-02-21T08:35:29;11.43;;;8.00;;
1879;SDS011;49285;49.002;8.390;2023-02-21T08:37:55;9.93;;;7.60;;
1879;SDS011;49285;49.002;8.390;2023-02-21T08:40:21;9.90;;;7.93;;
1879;SDS011;49285;49.002;8.390;2023-02-21T08:42:48;8.90;;;7.90;;
1879;SDS011;49285;49.002;8.390;2023-02-21T08:45:16;8.80;;;7.53;;
1879;SDS011;49285;49.002;8.390;2023-02-21T08:47:44;14.87;;;7.47;;
1879;SDS011;49285;49.002;8.390;2023-02-21T08:50:09;7.87;;;7.03;;
1879;SDS011;49285;49.002;8.390;2023-02-21T08:52:35;12.20;;;6.87;;
1879;SDS011;49285;49.002;8.390;2023-02-21T08:55:01;9.70;;;8.10;;
1879;SDS011;49285;49.002;8.390;2023-02-21T08:57:26;11.30;;;8.07;;
1879;SDS011;49285;49.002;8.390;2023-02-21T08:59:52;11.37;;;7.70;;
1879;SDS011;49285;49.002;8.390;2023-02-21T09:02:20;9.90;;;8.07;;
1879;SDS011;49285;49.002;8.390;2023-02-21T09:04:51;11.40;;;9.37;;
1879;SDS011;49285;49.002;8.390;2023-02-21T09:07:18;9.13;;;7.20;;
1879;SDS011;49285;49.002;8.390;2023-02-21T09:09:45;11.53;;;7.37;;
1879;SDS011;49285;49.002;8.390;2023-02-21T09:12:11;11.97;;;8.97;;
1879;SDS011;49285;49.002;8.390;2023-02-21T09:14:38;8.80;;;7.10;;
1879;SDS011;49285;49.002;8.390;2023-02-21T09:17:05;10.10;;;7.60;;
1879;SDS011;49285;49.002;8.390;2023-02-21T09:19:33;12.50;;;8.10;;
1879;SDS011;49285;49.002;8.390;2023-02-21T09:21:59;9.17;;;7.47;;
1879;SDS011;49285;49.002;8.390;2023-02-21T09:24:26;9.03;;;7.83;;
1879;SDS011;49285;49.002;8.390;2023-02-21T09:26:56;11.60;;;7.27;;
1879;SDS011;49285;49.002;8.390;2023-02-21T09:29:29;11.50;;;7.50;;
1879;SDS011;49285;49.002;8.390;2023-02-21T09:31:56;10.83;;;7.97;;
1879;SDS011;49285;49.002;8.390;2023-02-21T09:34:21;11.87;;;7.40;;
1879;SDS011;49285;49.002;8.390;2023-02-21T09:36:47;14.50;;;8.07;;
1879;SDS011;49285;49.002;8.390;2023-02-21T09:39:14;8.47;;;6.80;;
1879;SDS011;49285;49.002;8.390;2023-02-21T09:41:41;11.13;;;7.57;;
1879;SDS011;49285;49.002;8.390;2023-02-21T09:44:10;10.60;;;7.13;;
1879;SDS011;49285;49.002;8.390;2023-02-21T09:46:51;7.93;;;6.90;;
1879;SDS011;49285;49.002;8.390;2023-02-21T09:49:34;12.53;;;7.20;;
1879;SDS011;49285;49.002;8.390;2023-02-21T09:52:03;14.70;;;7.47;;
1879;SDS011;49285;49.002;8.390;2023-02-21T09:54:32;8.50;;;6.63;;
1879;SDS011;49285;49.002;8.390;2023-02-21T09:57:02;10.80;;;6.70;;
1879;SDS011;49285;49.002;8.390;2023-02-21T09:59:29;7.50;;;6.13;;
1879;SDS011;49285;49.002;8.390;2023-02-21T10:04:37;11.07;;;6.23;;
1879;SDS011;49285;49.002;8.390;2023-02-21T10:09:48;10.33;;;5.77;;
1879;SDS011;49285;49.002;8.390;2023-02-21T10:12:29;7.83;;;6.37;;
1879;SDS011;49285;49.002;8.390;2023-02-21T10:15:39;10.70;;;6.37;;
1879;SDS011;49285;49.002;8.390;2023-02-21T10:18:27;8.70;;;6.30;;
1879;SDS011;49285;49.002;8.390;2023-02-21T10:21:10;7.77;;;5.83;;
1879;SDS011;49285;49.002;8.390;2023-02-21T10:23:45;7.90;;;6.23;;
1879;SDS011;49285;49.002;8.390;2023-02-21T10:26:13;9.60;;;6.40;;
1879;SDS011;49285;49.002;8.390;2023-02-21T10:28:43;11.20;;;6.93;;
1879;SDS011;49285;49.002;8.390;2023-02-21T10:31:42;9.77;;;7.00;;
1879;SDS011;49285;49.002;8.390;2023-02-21T10:34:03;7.00;;;6.13;;
1879;SDS011;49285;49.002;8.390;2023-02-21T10:36:31;11.17;;;6.67;;
1879;SDS011;49285;49.002;8.390;2023-02-21T10:39:02;9.73;;;7.30;;
1879;SDS011;49285;49.002;8.390;2023-02-21T10:41:35;9.40;;;5.63;;
1879;SDS011;49285;49.002;8.390;2023-02-21T10:44:15;9.70;;;6.43;;
1879;SDS011;49285;49.002;8.390;2023-02-21T10:47:03;8.67;;;7.60;;
1879;SDS011;49285;49.002;8.390;2023-02-21T10:49:43;10.30;;;6.80;;
1879;SDS011;49285;49.002;8.390;2023-02-21T10:52:17;7.20;;;5.87;;
1879;SDS011;49285;49.002;8.390;2023-02-21T10:54:59;9.97;;;6.20;;
1879;SDS011;49285;49.002;8.390;2023-02-21T10:57:27;8.33;;;6.83;;
1879;SDS011;49285;49.002;8.390;2023-02-21T10:59:56;14.20;;;7.10;;
1879;SDS011;49285;49.002;8.390;2023-02-21T11:02:32;8.57;;;7.03;;
1879;SDS011;49285;49.002;8.390;2023-02-21T11:05:08;9.03;;;6.27;;
1879;SDS011;49285;49.002;8.390;2023-02-21T11:10:34;6.90;;;6.00;;
1879;SDS011;49285;49.002;8.390;2023-02-21T11:13:04;9.50;;;7.10;;
1879;SDS011;49285;49.002;8.390;2023-02-21T11:15:45;11.60;;;7.60;;
1879;SDS011;49285;49.002;8.390;2023-02-21T11:18:13;9.47;;;5.70;;
1879;SDS011;49285;49.002;8.390;2023-02-21T11:20:57;14.17;;;6.40;;
1879;SDS011;49285;49.002;8.390;2023-02-21T11:23:42;12.77;;;7.87;;
1879;SDS011;49285;49.002;8.390;2023-02-21T11:26:12;9.63;;;6.30;;
1879;SDS011;49285;49.002;8.390;2023-02-21T11:28:40;12.40;;;7.20;;
1879;SDS011;49285;49.002;8.390;2023-02-21T11:33:40;10.03;;;6.87;;
1879;SDS011;49285;49.002;8.390;2023-02-21T11:36:16;8.90;;;6.63;;
1879;SDS011;49285;49.002;8.390;2023-02-21T11:38:58;9.17;;;5.83;;
1879;SDS011;49285;49.002;8.390;2023-02-21T11:41:29;11.13;;;7.60;;
1879;SDS011;49285;49.002;8.390;2023-02-21T11:44:00;8.33;;;5.87;;
1879;SDS011;49285;49.002;8.390;2023-02-21T11:46:36;7.97;;;5.90;;
1879;SDS011;49285;49.002;8.390;2023-02-21T11:52:02;9.27;;;5.50;;
1879;SDS011;49285;49.002;8.390;2023-02-21T11:54:32;7.40;;;6.10;;
1879;SDS011;49285;49.002;8.390;2023-02-21T11:57:00;8.70;;;7.13;;
1879;SDS011;49285;49.002;8.390;2023-02-21T12:08:11;9.87;;;5.97;;
1879;SDS011;49285;49.002;8.390;2023-02-21T12:16:44;6.53;;;5.00;;
1879;SDS011;49285;49.002;8.390;2023-02-21T12:22:14;7.13;;;5.33;;
1879;SDS011;49285;49.002;8.390;2023-02-21T12:27:40;5.93;;;5.30;;
1879;SDS011;49285;49.002;8.390;2023-02-21T12:36:11;7.33;;;4.80;;
1879;SDS011;49285;49.002;8.390;2023-02-21T12:39:18;12.37;;;4.77;;
1879;SDS011;49285;49.002;8.390;2023-02-21T12:47:31;6.33;;;4.50;;
1879;SDS011;49285;49.002;8.390;2023-02-21T12:50:26;8.70;;;6.03;;
1879;SDS011;49285;49.002;8.390;2023-02-21T12:53:04;7.83;;;4.87;;
1879;SDS011;49285;49.002;8.390;2023-02-21T12:56:34;5.73;;;5.20;;
1879;SDS011;49285;49.002;8.390;2023-02-21T12:58:36;7.33;;;4.57;;
1879;SDS011;49285;49.002;8.390;2023-02-21T13:04:10;4.77;;;4.20;;
1879;SDS011;49285;49.002;8.390;2023-02-21T13:09:40;4.87;;;4.47;;
1879;SDS011;49285;49.002;8.390;2023-02-21T13:14:56;4.50;;;4.10;;
1879;SDS011;49285;49.002;8.390;2023-02-21T13:17:26;4.30;;;3.90;;
1879;SDS011;49285;49.002;8.390;2023-02-21T13:20:05;4.40;;;4.00;;
1879;SDS011;49285;49.002;8.390;2023-02-21T13:28:52;5.57;;;4.13;;
1879;SDS011;49285;49.002;8.390;2023-02-21T13:31:23;5.00;;;4.60;;
1879;SDS011;49285;49.002;8.390;2023-02-21T13:33:51;5.30;;;4.20;;
1879;SDS011;49285;49.002;8.390;2023-02-21T13:36:25;4.50;;;4.10;;
1879;SDS011;49285;49.002;8.390;2023-02-21T13:38:58;5.00;;;4.40;;
1879;SDS011;49285;49.002;8.390;2023-02-21T13:41:34;4.70;;;3.87;;
1879;SDS011;49285;49.002;8.390;2023-02-21T13:44:08;3.67;;;3.37;;
1879;SDS011;49285;49.002;8.390;2023-02-21T14:02:54;5.10;;;4.60;;
1879;SDS011;49285;49.002;8.390;2023-02-21T14:05:20;7.20;;;3.90;;
1879;SDS011;49285;49.002;8.390;2023-02-21T14:07:47;4.33;;;3.77;;
1879;SDS011;49285;49.002;8.390;2023-02-21T14:18:37;3.60;;;3.27;;
1879;SDS011;49285;49.002;8.390;2023-02-21T14:39:57;5.53;;;3.30;;
1879;SDS011;49285;49.002;8.390;2023-02-21T14:45:01;6.10;;;3.80;;
1879;SDS011;49285;49.002;8.390;2023-02-21T14:47:40;4.93;;;3.40;;
1879;SDS011;49285;49.002;8.390;2023-02-21T15:01:38;5.80;;;3.60;;
1879;SDS011;49285;49.002;8.390;2023-02-21T15:04:16;4.83;;;3.33;;
1879;SDS011;49285;49.002;8.390;2023-02-21T15:07:04;5.23;;;3.40;;
1879;SDS011;49285;49.002;8.390;2023-02-21T15:09:39;4.23;;;3.60;;
1879;SDS011;49285;49.002;8.390;2023-02-21T15:12:08;3.93;;;3.53;;
1879;SDS011;49285;49.002;8.390;2023-02-21T15:17:13;4.33;;;2.90;;
1879;SDS011;49285;49.002;8.390;2023-02-21T15:19:43;3.10;;;2.70;;
1879;SDS011;49285;49.002;8.390;2023-02-21T15:22:16;3.37;;;3.00;;
1879;SDS011;49285;49.002;8.390;2023-02-21T15:27:36;3.93;;;3.43;;
1879;SDS011;49285;49.002;8.390;2023-02-21T15:33:10;6.60;;;4.53;;
1879;SDS011;49285;49.002;8.390;2023-02-21T15:35:51;3.30;;;3.00;;
1879;SDS011;49285;49.002;8.390;2023-02-21T15:38:25;4.53;;;4.10;;
1879;SDS011;49285;49.002;8.390;2023-02-21T15:41:17;4.90;;;2.87;;
1879;SDS011;49285;49.002;8.390;2023-02-21T15:43:59;4.80;;;2.77;;
1879;SDS011;49285;49.002;8.390;2023-02-21T15:46:43;3.53;;;2.67;;
1879;SDS011;49285;49.002;8.390;2023-02-21T15:49:13;4.10;;;2.70;;
1879;SDS011;49285;49.002;8.390;2023-02-21T15:51:46;3.53;;;2.97;;
1879;SDS011;49285;49.002;8.390;2023-02-21T15:54:25;3.50;;;3.13;;
1879;SDS011;49285;49.002;8.390;2023-02-21T15:57:15;5.50;;;3.00;;
1879;SDS011;49285;49.002;8.390;2023-02-21T15:59:45;3.70;;;2.90;;
1879;SDS011;49285;49.002;8.390;2023-02-21T16:04:41;3.10;;;2.80;;
1879;SDS011;49285;49.002;8.390;2023-02-21T16:07:14;6.70;;;3.47;;
1879;SDS011;49285;49.002;8.390;2023-02-21T16:09:56;4.77;;;3.23;;
1879;SDS011;49285;49.002;8.390;2023-02-21T16:12:35;8.80;;;7.00;;
1879;SDS011;49285;49.002;8.390;2023-02-21T16:17:50;4.60;;;3.33;;
1879;SDS011;49285;49.002;8.390;2023-02-21T16:20:34;5.60;;;3.40;;
1879;SDS011;49285;49.002;8.390;2023-02-21T16:28:37;11.13;;;5.23;;
1879;SDS011;49285;49.002;8.390;2023-02-21T16:31:05;4.33;;;3.20;;
1879;SDS011;49285;49.002;8.390;2023-02-21T16:33:36;6.60;;;4.10;;
1879;SDS011;49285;49.002;8.390;2023-02-21T16:36:06;5.30;;;3.20;;
1879;SDS011;49285;49.002;8.390;2023-02-21T16:38:34;6.90;;;3.77;;
1879;SDS011;49285;49.002;8.390;2023-02-21T16:41:00;6.47;;;3.40;;
1879;SDS011;49285;49.002;8.390;2023-02-21T16:43:26;7.87;;;3.80;;
1879;SDS011;49285;49.002;8.390;2023-02-21T16:45:56;4.07;;;3.20;;
1879;SDS011;49285;49.002;8.390;2023-02-21T16:48:27;10.20;;;4.20;;
1879;SDS011;49285;49.002;8.390;2023-02-21T16:50:57;4.87;;;3.70;;
1879;SDS011;49285;49.002;8.390;2023-02-21T16:53:28;5.50;;;3.93;;
1879;SDS011;49285;49.002;8.390;2023-02-21T16:55:55;5.03;;;3.67;;
1879;SDS011;49285;49.002;8.390;2023-02-21T16:58:28;5.93;;;3.97;;
1879;SDS011;49285;49.002;8.390;2023-02-21T17:00:58;12.20;;;4.20;;
1879;SDS011;49285;49.002;8.390;2023-02-21T17:03:25;5.03;;;4.03;;
1879;SDS011;49285;49.002;8.390;2023-02-21T17:05:52;6.90;;;4.37;;
1879;SDS011;49285;49.002;8.390;2023-02-21T17:08:19;5.67;;;4.80;;
1879;SDS011;49285;49.002;8.390;2023-02-21T17:10:45;5.83;;;4.30;;
1879;SDS011;49285;49.002;8.390;2023-02-21T17:13:11;9.07;;;4.83;;
1879;SDS011;49285;49.002;8.390;2023-02-21T17:15:37;7.63;;;5.33;;
1879;SDS011;49285;49.002;8.390;2023-02-21T17:18:03;6.47;;;4.90;;
1879;SDS011;49285;49.002;8.390;2023-02-21T17:20:29;8.27;;;4.80;;
1879;SDS011;49285;49.002;8.390;2023-02-21T17:22:55;5.30;;;4.80;;
1879;SDS011;49285;49.002;8.390;2023-02-21T17:25:23;7.60;;;4.50;;
1879;SDS011;49285;49.002;8.390;2023-02-21T17:27:49;14.33;;;5.33;;
1879;SDS011;49285;49.002;8.390;2023-02-21T17:30:16;8.77;;;5.80;;
1879;SDS011;49285;49.002;8.390;2023-02-21T17:32:43;8.00;;;4.87;;
1879;SDS011;49285;49.002;8.390;2023-02-21T17:35:10;6.10;;;4.40;;
1879;SDS011;49285;49.002;8.390;2023-02-21T17:37:39;7.30;;;4.50;;
1879;SDS011;49285;49.002;8.390;2023-02-21T17:40:07;7.80;;;5.00;;
1879;SDS011;49285;49.002;8.390;2023-02-21T17:42:34;9.80;;;5.10;;
1879;SDS011;49285;49.002;8.390;2023-02-21T17:45:00;13.70;;;5.83;;
1879;SDS011;49285;49.002;8.390;2023-02-21T17:47:26;7.73;;;5.20;;
1879;SDS011;49285;49.002;8.390;2023-02-21T17:49:52;7.30;;;5.60;;
1879;SDS011;49285;49.002;8.390;2023-02-21T17:52:19;12.13;;;6.00;;
1879;SDS011;49285;49.002;8.390;2023-02-21T17:54:45;11.63;;;6.03;;
1879;SDS011;49285;49.002;8.390;2023-02-21T17:57:11;9.10;;;6.13;;
1879;SDS011;49285;49.002;8.390;2023-02-21T17:59:37;24.33;;;14.60;;
1879;SDS011;49285;49.002;8.390;2023-02-21T18:02:03;23.60;;;13.43;;
1879;SDS011;49285;49.002;8.390;2023-02-21T18:04:32;18.23;;;11.57;;
1879;SDS011;49285;49.002;8.390;2023-02-21T18:06:57;16.00;;;9.90;;
1879;SDS011;49285;49.002;8.390;2023-02-21T18:09:23;12.43;;;6.27;;